createdAt,value
2023-01-30T00:01:19.040Z,20.67
2023-01-30T00:03:47.399Z,16.33
2023-01-30T00:06:15.223Z,18.67
2023-01-30T00:08:42.743Z,16.92
2023-01-30T00:11:12.886Z,17.52
2023-01-30T00:13:41.270Z,18.37
2023-01-30T00:16:12.149Z,21.62
2023-01-30T00:18:43.072Z,20.17
2023-01-30T00:21:12.653Z,23.40
2023-01-30T00:23:40.757Z,24.60
2023-01-30T00:26:09.890Z,25.83
2023-01-30T00:28:39.609Z,22.30
2023-01-30T00:31:08.580Z,26.67
2023-01-30T00:33:37.349Z,18.98
2023-01-30T00:36:05.708Z,19.45
2023-01-30T00:38:34.184Z,19.37
2023-01-30T00:41:01.907Z,17.40
2023-01-30T00:43:49.504Z,16.77
2023-01-30T00:46:44.812Z,18.92
2023-01-30T00:49:12.602Z,18.60
2023-01-30T00:51:40.467Z,20.30
2023-01-30T00:54:08.128Z,20.40
2023-01-30T00:56:35.864Z,17.70
2023-01-30T00:59:03.973Z,19.60
2023-01-30T01:01:31.630Z,19.77
2023-01-30T01:03:59.257Z,17.80
2023-01-30T01:06:27.158Z,19.77
2023-01-30T01:08:54.657Z,19.37
2023-01-30T01:11:25.061Z,18.17
2023-01-30T01:13:57.190Z,17.60
2023-01-30T01:16:25.111Z,17.45
2023-01-30T01:18:53.468Z,16.17
2023-01-30T01:21:22.021Z,19.63
2023-01-30T01:23:51.529Z,18.40
2023-01-30T01:26:20.508Z,20.80
2023-01-30T01:28:48.359Z,19.37
2023-01-30T01:31:17.485Z,20.12
2023-01-30T01:33:45.465Z,16.83
2023-01-30T01:36:20.035Z,19.15
2023-01-30T01:38:57.469Z,19.48
2023-01-30T01:41:25.290Z,21.52
2023-01-30T01:44:04.315Z,18.37
2023-01-30T01:46:38.881Z,20.23
2023-01-30T01:49:17.776Z,21.30
2023-01-30T01:51:53.847Z,19.65
2023-01-30T01:54:32.317Z,19.55
2023-01-30T01:57:03.908Z,18.27
2023-01-30T01:59:45.957Z,20.93
2023-01-30T02:02:17.326Z,19.08
2023-01-30T02:05:03.120Z,19.90
2023-01-30T02:07:33.687Z,20.77
2023-01-30T02:10:01.972Z,18.17
2023-01-30T02:12:30.181Z,19.17
2023-01-30T02:14:58.246Z,20.90
2023-01-30T02:17:25.852Z,18.50
2023-01-30T02:20:27.313Z,19.70
2023-01-30T02:23:06.449Z,21.83
2023-01-30T02:25:43.325Z,20.63
2023-01-30T02:28:23.025Z,22.50
2023-01-30T02:31:12.686Z,19.23
2023-01-30T02:33:49.057Z,23.52
2023-01-30T02:36:36.184Z,19.85
2023-01-30T02:39:07.609Z,21.87
2023-01-30T02:41:50.977Z,21.90
2023-01-30T02:44:26.695Z,23.27
2023-01-30T02:46:58.812Z,21.67
2023-01-30T02:49:44.613Z,22.02
2023-01-30T02:52:12.991Z,22.53
2023-01-30T02:54:40.634Z,21.55
2023-01-30T02:57:20.936Z,18.15
2023-01-30T02:59:55.462Z,20.75
2023-01-30T03:02:28.601Z,20.23
2023-01-30T03:05:05.353Z,28.13
2023-01-30T03:07:42.938Z,21.25
2023-01-30T03:10:32.126Z,23.30
2023-01-30T03:13:25.127Z,19.77
2023-01-30T03:16:02.112Z,20.62
2023-01-30T03:18:29.743Z,21.57
2023-01-30T03:21:05.306Z,25.88
2023-01-30T03:23:33.054Z,21.20
2023-01-30T03:26:06.482Z,20.55
2023-01-30T03:28:34.553Z,22.52
2023-01-30T03:31:02.686Z,21.37
2023-01-30T03:33:30.288Z,18.50
2023-01-30T03:35:57.954Z,24.37
2023-01-30T03:38:26.088Z,19.80
2023-01-30T03:40:54.449Z,20.70
2023-01-30T03:43:22.371Z,20.47
2023-01-30T03:45:51.089Z,22.85
2023-01-30T03:48:18.754Z,18.73
2023-01-30T03:50:46.289Z,20.88
2023-01-30T03:53:14.485Z,18.95
2023-01-30T03:55:44.567Z,21.03
2023-01-30T03:58:12.372Z,20.10
2023-01-30T04:00:40.397Z,20.77
2023-01-30T04:03:08.332Z,20.88
2023-01-30T04:05:36.046Z,23.98
2023-01-30T04:08:03.876Z,18.83
2023-01-30T04:10:31.789Z,20.25
2023-01-30T04:12:59.717Z,19.10
2023-01-30T04:15:27.317Z,20.95
2023-01-30T04:17:56.006Z,19.73
2023-01-30T04:20:25.541Z,19.10
2023-01-30T04:22:55.549Z,18.98
2023-01-30T04:25:24.575Z,18.42
2023-01-30T04:27:52.969Z,19.37
2023-01-30T04:30:21.419Z,17.95
2023-01-30T04:32:50.303Z,21.43
2023-01-30T04:35:18.433Z,20.50
2023-01-30T04:37:46.069Z,20.27
2023-01-30T04:40:14.824Z,23.27
2023-01-30T04:42:43.501Z,20.52
2023-01-30T04:45:12.354Z,21.90
2023-01-30T04:47:40.440Z,19.95
2023-01-30T04:50:09.114Z,18.83
2023-01-30T04:52:39.576Z,20.60
2023-01-30T04:55:08.867Z,19.42
2023-01-30T04:57:36.509Z,22.03
2023-01-30T05:00:04.628Z,20.45
2023-01-30T05:02:33.532Z,20.88
2023-01-30T05:05:01.191Z,22.40
2023-01-30T05:07:28.702Z,18.98
2023-01-30T05:09:56.718Z,19.40
2023-01-30T05:12:24.262Z,20.70
2023-01-30T05:14:51.759Z,20.80
2023-01-30T05:17:19.638Z,19.70
2023-01-30T05:19:47.849Z,20.40
2023-01-30T05:22:15.342Z,22.33
2023-01-30T05:24:43.118Z,24.42
2023-01-30T05:27:10.658Z,20.58
2023-01-30T05:29:38.166Z,21.12
2023-01-30T05:32:06.331Z,25.67
2023-01-30T05:34:33.846Z,20.63
2023-01-30T05:37:01.330Z,19.92
2023-01-30T05:39:29.141Z,21.33
2023-01-30T05:41:56.683Z,18.12
2023-01-30T05:44:24.461Z,22.67
2023-01-30T05:46:52.637Z,20.00
2023-01-30T05:49:20.357Z,22.08
2023-01-30T05:51:50.550Z,24.42
2023-01-30T05:54:19.307Z,23.80
2023-01-30T05:56:50.106Z,21.42
2023-01-30T05:59:21.002Z,20.93
2023-01-30T06:01:49.018Z,23.87
2023-01-30T06:04:16.865Z,26.02
2023-01-30T06:06:44.429Z,21.77
2023-01-30T06:09:12.172Z,22.27
2023-01-30T06:11:40.169Z,22.40
2023-01-30T06:14:07.817Z,20.90
2023-01-30T06:16:35.368Z,23.20
2023-01-30T06:19:03.444Z,23.00
2023-01-30T06:21:31.428Z,26.73
2023-01-30T06:23:59.152Z,18.57
2023-01-30T06:26:27.127Z,22.25
2023-01-30T06:28:54.667Z,23.70
2023-01-30T06:31:22.823Z,18.30
2023-01-30T06:33:50.706Z,20.92
2023-01-30T06:36:19.317Z,21.70
2023-01-30T06:38:50.138Z,22.25
2023-01-30T06:41:18.005Z,19.98
2023-01-30T06:43:45.741Z,22.67
2023-01-30T06:46:13.401Z,27.27
2023-01-30T06:48:41.407Z,23.10
2023-01-30T06:51:08.951Z,20.92
2023-01-30T06:53:36.526Z,20.30
2023-01-30T06:56:04.651Z,19.67
2023-01-30T06:58:32.238Z,21.73
2023-01-30T07:00:59.837Z,20.73
2023-01-30T07:03:27.681Z,21.87
2023-01-30T07:05:55.283Z,29.17
2023-01-30T07:08:24.283Z,28.85
2023-01-30T07:10:52.326Z,28.48
2023-01-30T07:13:20.156Z,28.23
2023-01-30T07:15:47.861Z,28.70
2023-01-30T07:21:00.547Z,31.45
2023-01-30T07:23:28.918Z,31.17
2023-01-30T07:25:56.759Z,30.90
2023-01-30T07:28:24.584Z,31.67
2023-01-30T07:30:52.953Z,30.02
2023-01-30T07:33:20.903Z,29.87
2023-01-30T07:35:48.542Z,25.10
2023-01-30T07:38:16.369Z,33.23
2023-01-30T07:40:43.973Z,28.35
2023-01-30T07:43:14.884Z,27.50
2023-01-30T07:45:44.739Z,30.30
2023-01-30T07:48:15.038Z,30.10
2023-01-30T07:50:43.728Z,28.77
2023-01-30T07:53:14.042Z,30.42
2023-01-30T07:55:41.876Z,24.27
2023-01-30T07:58:14.856Z,27.23
2023-01-30T08:00:42.986Z,28.12
2023-01-30T08:03:15.098Z,25.37
2023-01-30T08:05:44.044Z,24.80
2023-01-30T08:08:11.958Z,23.80
2023-01-30T08:10:39.711Z,25.15
2023-01-30T08:13:07.246Z,24.08
2023-01-30T08:15:34.998Z,24.03
2023-01-30T08:18:02.570Z,26.08
2023-01-30T08:20:30.184Z,26.48
2023-01-30T08:22:59.496Z,21.92
2023-01-30T08:25:27.054Z,24.23
2023-01-30T08:27:55.001Z,23.07
2023-01-30T08:30:23.072Z,26.05
2023-01-30T08:32:50.621Z,25.40
2023-01-30T08:35:18.332Z,27.40
2023-01-30T08:37:46.157Z,23.65
2023-01-30T08:40:17.782Z,26.40
2023-01-30T08:42:46.155Z,24.77
2023-01-30T08:45:13.771Z,24.60
2023-01-30T08:47:41.400Z,24.63
2023-01-30T08:50:09.961Z,29.08
2023-01-30T08:52:37.566Z,25.23
2023-01-30T08:55:05.969Z,23.25
2023-01-30T08:57:33.889Z,24.70
2023-01-30T09:00:01.608Z,29.67
2023-01-30T09:02:30.914Z,20.70
2023-01-30T09:04:58.849Z,20.87
2023-01-30T09:07:28.754Z,23.98
2023-01-30T09:09:56.426Z,24.15
2023-01-30T09:12:24.714Z,22.95
2023-01-30T09:14:53.785Z,22.35
2023-01-30T09:17:21.924Z,24.67
2023-01-30T09:19:49.920Z,23.77
2023-01-30T09:22:17.619Z,25.52
2023-01-30T09:24:45.354Z,28.98
2023-01-30T09:27:13.199Z,30.27
2023-01-30T09:29:40.788Z,28.60
2023-01-30T09:32:08.636Z,29.85
2023-01-30T09:34:36.638Z,26.48
2023-01-30T09:37:05.088Z,24.35
2023-01-30T09:39:32.872Z,21.48
2023-01-30T09:42:20.983Z,26.97
2023-01-30T09:45:28.294Z,22.35
2023-01-30T09:48:23.169Z,23.52
2023-01-30T09:51:00.282Z,28.75
2023-01-30T09:54:09.963Z,26.23
2023-01-30T09:56:37.490Z,23.13
2023-01-30T09:59:05.594Z,24.23
2023-01-30T10:01:38.935Z,26.17
2023-01-30T10:04:15.105Z,28.02
2023-01-30T10:07:02.434Z,26.12
2023-01-30T10:09:43.541Z,25.37
2023-01-30T10:12:25.658Z,26.77
2023-01-30T10:15:14.715Z,25.73
2023-01-30T10:17:53.964Z,23.80
2023-01-30T10:20:39.039Z,27.00
2023-01-30T10:23:44.693Z,24.27
2023-01-30T10:26:15.422Z,29.33
2023-01-30T10:29:06.638Z,29.25
2023-01-30T10:31:44.282Z,27.37
2023-01-30T10:34:31.964Z,26.98
2023-01-30T10:37:47.630Z,26.07
2023-01-30T10:40:20.434Z,29.52
2023-01-30T10:42:48.339Z,31.20
2023-01-30T10:45:20.419Z,27.80
2023-01-30T10:48:07.973Z,28.42
2023-01-30T10:51:18.815Z,32.33
2023-01-30T10:53:52.323Z,29.95
2023-01-30T10:56:30.025Z,30.95
2023-01-30T10:59:08.329Z,32.05
2023-01-30T11:02:00.060Z,27.92
2023-01-30T11:04:36.885Z,27.37
2023-01-30T11:07:04.777Z,29.92
2023-01-30T11:09:46.799Z,29.92
2023-01-30T11:12:15.094Z,34.78
2023-01-30T11:15:00.159Z,32.22
2023-01-30T11:17:39.824Z,27.20
2023-01-30T11:20:13.416Z,29.85
2023-01-30T11:22:47.785Z,27.70
2023-01-30T11:25:20.100Z,26.20
2023-01-30T11:28:19.755Z,26.50
2023-01-30T11:30:53.676Z,48.93
2023-01-30T11:33:23.099Z,27.20
2023-01-30T11:36:04.488Z,27.17
2023-01-30T11:38:35.120Z,26.50
2023-01-30T11:41:19.057Z,24.33
2023-01-30T11:43:48.315Z,22.93
2023-01-30T11:46:20.677Z,24.00
2023-01-30T11:49:02.477Z,28.23
2023-01-30T11:51:45.177Z,23.80
2023-01-30T11:54:15.743Z,24.17
2023-01-30T11:56:46.468Z,33.50
2023-01-30T11:59:32.081Z,25.70
2023-01-30T12:02:45.059Z,27.08
2023-01-30T12:05:26.261Z,33.00
2023-01-30T12:07:53.901Z,34.20
2023-01-30T12:10:25.360Z,29.40
2023-01-30T12:12:55.581Z,27.02
2023-01-30T12:15:28.665Z,28.17
2023-01-30T12:18:14.714Z,30.67
2023-01-30T12:21:10.390Z,28.75
2023-01-30T12:23:41.196Z,27.90
2023-01-30T12:26:30.526Z,29.10
2023-01-30T12:29:03.910Z,27.35
2023-01-30T12:31:35.951Z,28.02
2023-01-30T12:34:04.281Z,29.55
2023-01-30T12:37:02.883Z,28.83
2023-01-30T12:39:56.227Z,26.55
2023-01-30T12:43:02.102Z,26.12
2023-01-30T12:45:31.865Z,23.70
2023-01-30T12:49:07.901Z,28.48
2023-01-30T12:51:57.256Z,24.07
2023-01-30T12:54:43.647Z,28.83
2023-01-30T12:57:49.515Z,25.70
2023-01-30T13:00:33.908Z,29.23
2023-01-30T13:03:19.866Z,27.42
2023-01-30T13:05:54.199Z,20.60
2023-01-30T13:08:34.649Z,25.70
2023-01-30T13:11:14.610Z,27.25
2023-01-30T13:13:43.122Z,34.25
2023-01-30T13:16:34.210Z,36.55
2023-01-30T13:19:40.884Z,36.03
2023-01-30T13:22:27.456Z,32.28
2023-01-30T13:25:08.403Z,34.92
2023-01-30T13:27:39.278Z,37.97
2023-01-30T13:30:11.783Z,34.15
2023-01-30T13:32:49.447Z,34.17
2023-01-30T13:35:23.220Z,33.30
2023-01-30T13:37:52.095Z,26.10
2023-01-30T13:40:22.695Z,27.00
2023-01-30T13:42:56.477Z,27.98
2023-01-30T13:45:27.215Z,24.33
2023-01-30T13:47:57.809Z,23.08
2023-01-30T13:50:42.057Z,25.20
2023-01-30T13:53:19.064Z,28.90
2023-01-30T13:55:57.590Z,29.63
2023-01-30T13:58:32.846Z,38.53
2023-01-30T14:01:00.418Z,28.92
2023-01-30T14:03:32.950Z,35.10
2023-01-30T14:06:02.726Z,29.12
2023-01-30T14:08:48.180Z,24.67
2023-01-30T14:11:36.280Z,26.73
2023-01-30T14:14:26.664Z,26.75
2023-01-30T14:17:15.072Z,27.73
2023-01-30T14:19:47.377Z,28.83
2023-01-30T14:22:34.029Z,25.80
2023-01-30T14:25:29.773Z,25.37
2023-01-30T14:28:00.193Z,28.95
2023-01-30T14:30:31.166Z,28.38
2023-01-30T14:33:00.709Z,23.35
2023-01-30T14:35:32.999Z,21.42
2023-01-30T14:38:12.181Z,26.77
2023-01-30T14:40:42.006Z,25.05
2023-01-30T14:43:12.587Z,25.20
2023-01-30T14:46:03.073Z,22.52
2023-01-30T14:48:37.422Z,28.58
2023-01-30T14:51:57.328Z,30.67
2023-01-30T14:54:41.099Z,21.92
2023-01-30T14:57:22.844Z,25.12
2023-01-30T15:00:13.145Z,29.42
2023-01-30T15:02:44.387Z,26.67
2023-01-30T15:05:15.051Z,26.67
2023-01-30T15:08:08.468Z,21.27
2023-01-30T15:10:39.013Z,21.83
2023-01-30T15:13:12.712Z,23.60
2023-01-30T15:15:45.863Z,31.75
2023-01-30T15:18:16.830Z,35.10
2023-01-30T15:21:15.462Z,27.08
2023-01-30T15:23:53.767Z,47.58
2023-01-30T15:26:26.983Z,34.58
2023-01-30T15:29:02.609Z,28.85
2023-01-30T15:31:30.433Z,30.93
2023-01-30T15:33:58.376Z,26.25
2023-01-30T15:36:31.744Z,24.02
2023-01-30T15:39:05.351Z,26.90
2023-01-30T15:41:39.990Z,26.50
2023-01-30T15:44:36.000Z,30.17
2023-01-30T15:47:27.077Z,26.17
2023-01-30T15:49:54.845Z,22.73
2023-01-30T15:52:28.960Z,21.20
2023-01-30T15:54:58.856Z,23.80
2023-01-30T15:57:33.191Z,25.17
2023-01-30T16:00:01.817Z,25.15
2023-01-30T16:02:36.675Z,21.58
2023-01-30T16:05:25.477Z,27.52
2023-01-30T16:07:55.269Z,27.50
2023-01-30T16:10:28.628Z,31.43
2023-01-30T16:12:58.223Z,35.83
2023-01-30T16:15:41.405Z,31.95
2023-01-30T16:18:18.574Z,25.58
2023-01-30T16:21:00.459Z,38.13
2023-01-30T16:23:30.992Z,34.53
2023-01-30T16:25:59.324Z,33.40
2023-01-30T16:28:28.243Z,33.97
2023-01-30T16:31:04.750Z,31.35
2023-01-30T16:33:36.854Z,33.92
2023-01-30T16:36:26.870Z,44.97
2023-01-30T16:38:55.496Z,41.78
2023-01-30T16:41:34.264Z,46.37
2023-01-30T16:44:23.620Z,36.00
2023-01-30T16:47:06.388Z,41.70
2023-01-30T16:49:39.736Z,34.77
2023-01-30T16:52:34.718Z,36.72
2023-01-30T16:55:05.445Z,34.65
2023-01-30T16:57:40.414Z,33.17
2023-01-30T17:00:29.105Z,36.90
2023-01-30T17:03:24.304Z,35.40
2023-01-30T17:05:52.536Z,31.10
2023-01-30T17:08:54.044Z,29.20
2023-01-30T17:11:38.110Z,27.40
2023-01-30T17:14:10.672Z,30.40
2023-01-30T17:16:40.415Z,35.57
2023-01-30T17:19:08.024Z,31.60
2023-01-30T17:21:48.831Z,32.65
2023-01-30T17:24:18.890Z,40.90
2023-01-30T17:26:49.694Z,34.13
2023-01-30T17:29:28.824Z,31.53
2023-01-30T17:32:10.759Z,27.83
2023-01-30T17:34:41.215Z,28.58
2023-01-30T17:37:14.957Z,30.62
2023-01-30T17:39:42.924Z,27.48
2023-01-30T17:42:11.640Z,26.17
2023-01-30T17:44:39.477Z,27.95
2023-01-30T17:47:11.179Z,28.50
2023-01-30T17:49:39.973Z,34.33
2023-01-30T17:52:08.461Z,31.85
2023-01-30T17:54:36.120Z,29.97
2023-01-30T17:57:06.003Z,36.72
2023-01-30T17:59:34.325Z,36.58
2023-01-30T18:02:02.166Z,33.83
2023-01-30T18:04:30.414Z,27.30
2023-01-30T18:07:04.452Z,32.13
2023-01-30T18:09:32.577Z,32.05
2023-01-30T18:12:00.457Z,25.85
2023-01-30T18:14:28.011Z,26.08
2023-01-30T18:17:00.410Z,27.65
2023-01-30T18:19:29.604Z,24.00
2023-01-30T18:21:58.463Z,20.35
2023-01-30T18:24:26.330Z,22.25
2023-01-30T18:26:54.475Z,21.15
2023-01-30T18:29:22.604Z,20.08
2023-01-30T18:31:50.764Z,18.63
2023-01-30T18:34:18.599Z,18.17
2023-01-30T18:36:46.689Z,18.87
2023-01-30T18:39:14.706Z,20.27
2023-01-30T18:41:42.265Z,21.87
2023-01-30T18:44:11.160Z,19.93
2023-01-30T18:46:39.265Z,18.35
2023-01-30T18:49:08.300Z,15.52
2023-01-30T18:51:36.365Z,17.55
2023-01-30T18:54:04.202Z,17.70
2023-01-30T18:56:35.148Z,17.63
2023-01-30T18:59:05.258Z,16.75
2023-01-30T19:01:36.683Z,16.92
2023-01-30T19:04:07.908Z,14.05
2023-01-30T19:06:37.682Z,16.30
2023-01-30T19:09:06.245Z,13.03
2023-01-30T19:11:52.731Z,11.90
2023-01-30T19:14:20.869Z,11.45
2023-01-30T19:16:51.276Z,8.75
2023-01-30T19:19:19.078Z,11.40
2023-01-30T19:21:48.490Z,11.47
2023-01-30T19:24:19.232Z,9.68
2023-01-30T19:26:47.871Z,12.10
2023-01-30T19:29:16.445Z,13.00
2023-01-30T19:31:47.154Z,10.18
2023-01-30T19:34:17.088Z,12.23
2023-01-30T19:36:44.903Z,10.48
2023-01-30T19:39:12.941Z,12.77
2023-01-30T19:41:41.186Z,10.50
2023-01-30T19:44:10.762Z,13.02
2023-01-30T19:46:38.694Z,11.03
2023-01-30T19:49:06.988Z,10.82
2023-01-30T19:51:35.741Z,11.27
2023-01-30T19:54:06.215Z,12.80
2023-01-30T19:56:36.684Z,13.45
2023-01-30T19:59:04.869Z,14.60
2023-01-30T20:01:35.685Z,13.05
2023-01-30T20:04:05.276Z,14.05
2023-01-30T20:06:33.946Z,12.85
2023-01-30T20:09:07.034Z,12.30
2023-01-30T20:11:36.919Z,11.80
2023-01-30T20:14:07.014Z,11.73
2023-01-30T20:16:36.014Z,11.65
2023-01-30T20:19:07.007Z,8.90
2023-01-30T20:21:36.049Z,9.25
2023-01-30T20:24:05.699Z,10.67
2023-01-30T20:26:36.194Z,8.27
2023-01-30T20:29:04.601Z,8.27
2023-01-30T20:31:32.751Z,6.32
2023-01-30T20:34:02.521Z,5.70
2023-01-30T20:36:30.651Z,8.30
2023-01-30T20:39:04.447Z,7.85
2023-01-30T20:41:35.141Z,7.00
2023-01-30T20:44:06.034Z,8.43
2023-01-30T20:46:42.566Z,7.28
2023-01-30T20:49:16.003Z,8.17
2023-01-30T20:51:45.245Z,8.25
2023-01-30T20:54:14.966Z,8.68
2023-01-30T20:56:44.904Z,8.27
2023-01-30T20:59:15.340Z,7.90
2023-01-30T21:01:43.327Z,7.87
2023-01-30T21:04:13.732Z,8.13
2023-01-30T21:06:45.712Z,8.20
2023-01-30T21:09:16.589Z,11.18
2023-01-30T21:11:45.501Z,6.62
2023-01-30T21:14:13.539Z,6.53
2023-01-30T21:23:01.126Z,7.10
2023-01-30T21:25:30.327Z,7.55
2023-01-30T21:27:59.245Z,7.77
2023-01-30T21:30:37.245Z,7.10
2023-01-30T21:33:10.915Z,7.32
2023-01-30T21:35:43.091Z,5.82
2023-01-30T21:38:36.728Z,5.55
2023-01-30T21:41:25.217Z,7.20
2023-01-30T21:43:57.438Z,6.40
2023-01-30T21:46:25.878Z,7.53
2023-01-30T21:48:56.943Z,7.70
2023-01-30T21:51:29.898Z,7.82
2023-01-30T21:54:03.669Z,6.73
2023-01-30T21:56:33.060Z,9.63
2023-01-30T21:59:04.023Z,8.25
2023-01-30T22:01:32.606Z,9.80
2023-01-30T22:04:07.674Z,10.05
2023-01-30T22:06:39.069Z,8.00
2023-01-30T22:09:10.001Z,7.80
2023-01-30T22:11:39.776Z,7.85
2023-01-30T22:14:09.981Z,7.78
2023-01-30T22:16:39.709Z,9.53
2023-01-30T22:19:09.915Z,6.28
2023-01-30T22:21:40.135Z,5.80
2023-01-30T22:24:09.961Z,5.75
2023-01-30T22:26:39.579Z,5.72
2023-01-30T22:29:11.728Z,6.50
2023-01-30T22:31:41.894Z,5.95
2023-01-30T22:34:12.642Z,6.62
2023-01-30T22:36:45.579Z,7.18
2023-01-30T22:39:14.005Z,8.23
2023-01-30T22:41:43.105Z,6.00
2023-01-30T22:44:11.723Z,5.93
2023-01-30T22:46:45.448Z,8.43
2023-01-30T22:49:14.774Z,5.12
2023-01-30T22:51:43.714Z,4.60
2023-01-30T22:54:18.815Z,5.93
2023-01-30T22:56:49.619Z,6.07
2023-01-30T22:59:19.084Z,5.62
2023-01-30T23:01:51.085Z,5.10
2023-01-30T23:04:20.626Z,5.18
2023-01-30T23:06:49.099Z,4.47
2023-01-30T23:09:19.715Z,7.30
2023-01-30T23:12:25.429Z,8.95
2023-01-30T23:14:53.225Z,6.30
2023-01-30T23:17:39.316Z,8.80
2023-01-30T23:20:07.717Z,6.00
2023-01-30T23:22:35.570Z,6.03
2023-01-30T23:25:03.585Z,6.75
2023-01-30T23:27:31.409Z,6.07
2023-01-30T23:29:59.096Z,6.40
2023-01-30T23:32:26.749Z,5.53
2023-01-30T23:34:54.527Z,6.72
2023-01-30T23:37:42.028Z,7.15
2023-01-30T23:40:11.504Z,6.40
2023-01-30T23:42:39.004Z,7.85
2023-01-30T23:45:07.281Z,7.33
2023-01-30T23:47:35.330Z,6.90
2023-01-30T23:50:03.008Z,6.78
2023-01-30T23:52:31.627Z,6.65
2023-01-30T23:54:59.475Z,6.00
2023-01-30T23:57:26.970Z,6.23
2023-01-30T23:59:54.510Z,6.70
